Time;durP1;ratioP1;P1;durP2;ratioP2;P2;SDS_P1;SDS_P2;PMS_P1;PMS_P2;Temp;Humidity;BMP_temperature;BMP_pressure;BME280_temperature;BME280_humidity;BME280_pressure;Samples;Min_cycle;Max_cycle;Signal;HPM_P1;HPM_P2
2021/06/22 00:01:00;;;;;;;3.20;1.90;;;19.30;99.90;;;;;;5025303;28;21052;-52
2021/06/22 00:03:26;;;;;;;3.80;1.90;;;19.30;99.90;;;;;;5011860;28;20496;-52
2021/06/22 00:05:53;;;;;;;2.50;2.30;;;19.30;99.90;;;;;;5029232;28;20453;-52
2021/06/22 00:08:20;;;;;;;3.87;3.30;;;19.30;99.90;;;;;;5030966;28;20448;-52
2021/06/22 00:10:49;;;;;;;3.70;2.47;;;19.30;99.90;;;;;;5016692;28;20480;-53
2021/06/22 00:13:16;;;;;;;2.23;2.03;;;19.20;99.90;;;;;;5019713;28;20526;-52
2021/06/22 00:15:43;;;;;;;2.60;2.40;;;19.30;99.90;;;;;;5030322;28;20511;-53
2021/06/22 00:18:10;;;;;;;2.90;2.60;;;19.30;99.90;;;;;;5030060;28;20879;-52
2021/06/22 00:20:37;;;;;;;3.03;2.70;;;19.20;99.90;;;;;;5030285;28;20455;-53
2021/06/22 00:23:04;;;;;;;5.50;2.77;;;19.10;99.90;;;;;;5030172;28;20539;-52
2021/06/22 00:25:31;;;;;;;2.90;2.37;;;19.20;99.90;;;;;;5031059;28;20453;-52
2021/06/22 00:28:00;;;;;;;3.23;2.43;;;19.20;99.90;;;;;;5030761;28;20445;-53
2021/06/22 00:30:27;;;;;;;3.83;2.47;;;19.20;99.90;;;;;;5030228;28;21001;-53
2021/06/22 00:32:54;;;;;;;4.53;2.60;;;19.20;99.90;;;;;;5030272;28;20464;-52
2021/06/22 00:35:21;;;;;;;3.13;2.50;;;19.10;99.90;;;;;;5025319;28;20453;-53
2021/06/22 00:37:48;;;;;;;5.70;2.50;;;19.00;99.90;;;;;;5029578;28;20511;-52
2021/06/22 00:40:16;;;;;;;3.90;2.50;;;19.00;99.90;;;;;;5024280;28;20456;-53
2021/06/22 00:42:45;;;;;;;3.57;2.53;;;19.10;99.90;;;;;;5022337;28;20595;-53
2021/06/22 00:45:15;;;;;;;2.80;2.33;;;19.00;99.90;;;;;;5023205;28;20475;-53
2021/06/22 00:47:42;;;;;;;4.20;2.40;;;19.00;99.90;;;;;;5027447;28;20487;-53
2021/06/22 00:50:11;;;;;;;3.43;2.87;;;19.00;99.90;;;;;;5033338;28;20487;-53
2021/06/22 00:52:39;;;;;;;5.53;2.53;;;18.90;99.90;;;;;;5032955;28;20522;-53
2021/06/22 00:55:12;;;;;;;2.93;2.50;;;18.90;99.90;;;;;;5030695;28;20455;-53
2021/06/22 00:57:40;;;;;;;2.90;2.20;;;18.90;99.90;;;;;;5020808;28;20810;-52
2021/06/22 01:00:10;;;;;;;3.17;2.30;;;18.80;99.90;;;;;;5022980;28;20448;-52
2021/06/22 01:02:38;;;;;;;2.83;2.63;;;18.80;99.90;;;;;;5029755;28;20542;-52
2021/06/22 01:05:06;;;;;;;2.43;2.23;;;18.90;99.90;;;;;;5033600;28;20495;-53
2021/06/22 01:07:34;;;;;;;3.57;2.50;;;18.80;99.90;;;;;;5033483;28;20460;-52
2021/06/22 01:10:01;;;;;;;2.97;2.50;;;18.80;99.90;;;;;;5026564;28;20499;-52
2021/06/22 01:12:28;;;;;;;3.57;2.30;;;18.80;99.90;;;;;;5024080;28;20553;-52
2021/06/22 01:14:55;;;;;;;2.37;2.17;;;18.80;99.90;;;;;;5033608;28;20538;-52
2021/06/22 01:17:22;;;;;;;3.00;2.40;;;18.80;99.90;;;;;;5015560;28;20504;-52
2021/06/22 01:19:50;;;;;;;3.77;2.47;;;18.70;99.90;;;;;;5013947;28;20453;-51
2021/06/22 01:22:18;;;;;;;2.73;2.30;;;18.70;99.90;;;;;;5027661;28;20476;-52
2021/06/22 01:24:45;;;;;;;3.53;2.17;;;18.70;99.90;;;;;;5031081;28;20446;-53
2021/06/22 01:27:13;;;;;;;4.20;2.67;;;18.70;99.90;;;;;;5020330;28;20440;-53
2021/06/22 01:29:40;;;;;;;3.20;2.53;;;18.70;99.90;;;;;;5028378;28;20450;-52
2021/06/22 01:32:08;;;;;;;6.53;2.70;;;18.70;99.90;;;;;;5025657;28;20456;-52
2021/06/22 01:34:35;;;;;;;6.27;2.40;;;18.90;99.90;;;;;;5014101;28;20449;-52
2021/06/22 01:37:07;;;;;;;3.73;2.40;;;18.90;99.90;;;;;;5013875;28;20528;-52
2021/06/22 01:39:36;;;;;;;3.97;1.73;;;18.90;99.90;;;;;;5013888;28;20453;-52
2021/06/22 01:42:03;;;;;;;3.73;2.47;;;18.80;99.90;;;;;;5024859;28;20456;-53
2021/06/22 01:44:31;;;;;;;2.87;2.00;;;18.70;99.90;;;;;;5032406;28;20852;-53
2021/06/22 01:46:59;;;;;;;4.03;2.00;;;18.70;99.90;;;;;;5031603;28;20445;-53
2021/06/22 01:49:26;;;;;;;2.80;2.10;;;18.70;99.90;;;;;;5014216;28;20454;-52
2021/06/22 01:51:53;;;;;;;3.23;2.30;;;18.80;99.90;;;;;;5023651;28;20835;-52
2021/06/22 01:54:20;;;;;;;2.63;1.97;;;18.70;99.90;;;;;;5033268;28;20503;-53
2021/06/22 01:56:51;;;;;;;2.80;2.00;;;18.70;99.90;;;;;;5032664;28;20883;-53
2021/06/22 01:59:18;;;;;;;5.77;2.10;;;18.70;99.90;;;;;;5025279;28;20454;-53
2021/06/22 02:01:46;;;;;;;3.33;2.17;;;18.80;99.90;;;;;;5026243;28;20523;-53
2021/06/22 02:04:13;;;;;;;3.60;2.17;;;18.70;99.90;;;;;;5032909;28;20488;-53
2021/06/22 02:06:40;;;;;;;2.03;1.77;;;18.70;99.90;;;;;;5033183;28;20532;-53
2021/06/22 02:09:07;;;;;;;2.10;1.90;;;18.80;99.90;;;;;;5032839;28;20514;-53
2021/06/22 02:11:35;;;;;;;4.40;2.10;;;18.80;99.90;;;;;;5032313;28;20954;-52
2021/06/22 02:14:05;;;;;;;2.50;2.00;;;18.80;99.90;;;;;;5025980;28;20539;-52
2021/06/22 02:16:34;;;;;;;5.50;2.10;;;18.80;99.90;;;;;;5031962;28;20472;-52
2021/06/22 02:19:01;;;;;;;2.50;2.27;;;18.70;99.90;;;;;;5032487;28;20526;-53
2021/06/22 02:21:28;;;;;;;4.63;2.43;;;18.80;99.90;;;;;;5031726;28;20457;-52
2021/06/22 02:23:55;;;;;;;2.37;2.00;;;18.80;99.90;;;;;;5031183;28;20485;-52
2021/06/22 02:26:22;;;;;;;4.93;2.10;;;18.90;99.90;;;;;;5032583;28;20448;-52
2021/06/22 02:28:49;;;;;;;2.90;2.13;;;18.70;99.90;;;;;;5024309;28;20456;-53
2021/06/22 02:31:17;;;;;;;4.17;2.13;;;18.70;99.90;;;;;;5020237;28;20498;-53
2021/06/22 02:33:44;;;;;;;5.97;3.30;;;18.70;99.90;;;;;;5032520;28;20515;-52
2021/06/22 02:36:11;;;;;;;10.67;3.87;;;18.80;99.90;;;;;;5032240;28;20526;-53
2021/06/22 02:38:39;;;;;;;6.20;2.57;;;18.80;99.90;;;;;;5032163;28;20448;-53
2021/06/22 02:41:06;;;;;;;5.03;2.40;;;18.90;99.90;;;;;;5032147;28;20878;-52
2021/06/22 02:43:33;;;;;;;4.03;2.70;;;18.80;99.90;;;;;;5029799;28;20918;-53
2021/06/22 02:46:00;;;;;;;5.63;3.17;;;18.80;99.90;;;;;;5032095;28;20445;-53
2021/06/22 02:48:28;;;;;;;3.40;2.33;;;18.80;99.90;;;;;;5016957;28;20453;-53
2021/06/22 02:50:55;;;;;;;3.33;2.50;;;18.80;99.90;;;;;;5022481;28;20456;-53
2021/06/22 02:53:22;;;;;;;2.90;2.20;;;18.80;99.90;;;;;;5031966;28;20460;-53
2021/06/22 02:55:50;;;;;;;4.30;2.37;;;18.70;99.90;;;;;;5031794;28;20440;-53
2021/06/22 02:58:17;;;;;;;3.37;2.10;;;18.70;99.90;;;;;;5026555;28;20560;-53
2021/06/22 03:00:44;;;;;;;3.40;2.40;;;18.80;99.90;;;;;;5022018;28;20442;-53
2021/06/22 03:03:11;;;;;;;5.10;2.23;;;18.90;99.90;;;;;;5011919;28;20563;-53
2021/06/22 03:05:39;;;;;;;3.50;2.27;;;18.90;99.90;;;;;;5012028;28;20556;-53
2021/06/22 03:08:07;;;;;;;5.63;2.30;;;18.90;99.90;;;;;;5011389;28;20457;-53
2021/06/22 03:10:34;;;;;;;2.40;2.17;;;19.00;99.90;;;;;;5013008;28;21021;-53
2021/06/22 03:13:01;;;;;;;3.07;2.07;;;19.00;99.90;;;;;;5019429;28;20476;-52
2021/06/22 03:15:28;;;;;;;3.70;2.80;;;19.10;99.90;;;;;;5051971;22;20493;-53
2021/06/22 03:17:55;;;;;;;3.67;2.67;;;19.00;99.90;;;;;;5023398;28;20445;-53
2021/06/22 03:20:22;;;;;;;3.90;2.73;;;19.00;99.90;;;;;;5012115;28;20449;-54
2021/06/22 03:22:51;;;;;;;3.40;3.07;;;18.90;99.90;;;;;;5015902;28;20523;-53
2021/06/22 03:25:18;;;;;;;5.23;2.43;;;19.00;99.90;;;;;;5012049;28;20468;-52
2021/06/22 03:27:45;;;;;;;3.57;2.40;;;19.00;99.90;;;;;;5029225;28;20437;-53
2021/06/22 03:30:13;;;;;;;7.83;2.83;;;19.00;99.90;;;;;;5031659;28;20476;-53
2021/06/22 03:32:45;;;;;;;2.83;2.53;;;18.90;99.90;;;;;;5031018;28;20880;-54
2021/06/22 03:35:13;;;;;;;3.00;2.20;;;18.90;99.90;;;;;;5027770;28;20992;-52
2021/06/22 03:37:40;;;;;;;5.83;2.50;;;18.90;99.90;;;;;;5019190;28;20440;-53
2021/06/22 03:40:09;;;;;;;4.30;2.47;;;19.00;99.90;;;;;;5031626;28;20495;-52
2021/06/22 03:42:37;;;;;;;5.93;2.47;;;19.00;99.90;;;;;;5031666;28;20495;-53
2021/06/22 03:45:06;;;;;;;3.00;2.23;;;19.10;99.90;;;;;;5031371;28;20898;-53
2021/06/22 03:47:34;;;;;;;2.53;2.33;;;19.10;99.90;;;;;;5031762;28;20452;-53
2021/06/22 03:50:01;;;;;;;3.97;2.60;;;19.10;99.90;;;;;;5031566;28;20460;-53
2021/06/22 03:52:29;;;;;;;5.17;2.33;;;19.10;99.90;;;;;;5022921;28;20442;-53
2021/06/22 03:54:56;;;;;;;3.80;2.47;;;19.10;99.90;;;;;;5024034;28;20457;-53
2021/06/22 03:57:25;;;;;;;2.97;2.77;;;19.20;99.90;;;;;;5024879;28;20461;-53
2021/06/22 03:59:52;;;;;;;2.43;2.20;;;19.20;99.90;;;;;;5030927;28;20463;-53
2021/06/22 04:02:19;;;;;;;2.37;2.00;;;19.30;99.90;;;;;;5030186;28;20455;-54
2021/06/22 04:04:47;;;;;;;3.63;2.33;;;19.30;99.90;;;;;;5031280;28;20495;-53
2021/06/22 04:07:13;;;;;;;2.50;2.30;;;19.40;99.90;;;;;;5031300;28;20591;-53
2021/06/22 04:09:40;;;;;;;3.90;2.23;;;19.50;99.90;;;;;;5031265;28;20445;-53
2021/06/22 04:12:09;;;;;;;1.90;1.80;;;19.50;99.90;;;;;;5030195;28;20449;-54
2021/06/22 04:14:37;;;;;;;3.50;2.00;;;19.50;99.90;;;;;;5017324;28;20518;-53
2021/06/22 04:17:04;;;;;;;3.77;2.53;;;19.50;99.90;;;;;;5019822;28;20476;-53
2021/06/22 04:19:32;;;;;;;4.30;2.57;;;19.40;99.90;;;;;;5032571;28;20878;-51
2021/06/22 04:21:59;;;;;;;2.73;2.53;;;19.50;99.90;;;;;;5035193;28;20444;-53
2021/06/22 04:24:26;;;;;;;4.37;2.40;;;19.50;99.90;;;;;;5034407;28;21092;-53
2021/06/22 04:26:53;;;;;;;2.40;2.20;;;19.50;99.90;;;;;;5015421;28;20818;-53
2021/06/22 04:29:20;;;;;;;3.83;2.17;;;19.60;99.90;;;;;;5030528;28;20452;-55
2021/06/22 04:31:48;;;;;;;4.80;2.37;;;19.60;99.90;;;;;;5034464;28;20548;-52
2021/06/22 04:34:15;;;;;;;4.33;2.60;;;19.60;99.90;;;;;;5031176;28;20445;-52
2021/06/22 04:36:42;;;;;;;3.70;2.40;;;19.70;99.90;;;;;;5034831;28;20472;-54
2021/06/22 04:39:09;;;;;;;2.43;2.00;;;19.70;99.90;;;;;;5034335;28;20448;-53
2021/06/22 04:41:38;;;;;;;5.60;3.10;;;19.70;99.90;;;;;;5034078;28;20506;-55
2021/06/22 04:44:05;;;;;;;4.30;2.60;;;19.80;99.90;;;;;;5033249;28;20476;-53
2021/06/22 04:46:33;;;;;;;4.10;2.90;;;19.90;99.90;;;;;;5033692;28;21044;-53
2021/06/22 04:49:03;;;;;;;5.40;2.60;;;20.00;99.90;;;;;;5034509;28;20872;-53
2021/06/22 04:51:30;;;;;;;2.83;2.60;;;20.00;99.90;;;;;;5034479;28;20448;-53
2021/06/22 04:53:57;;;;;;;3.97;3.10;;;20.10;99.90;;;;;;5034437;28;20449;-53
2021/06/22 04:56:25;;;;;;;6.83;2.90;;;20.20;99.90;;;;;;5034259;28;20534;-53
2021/06/22 04:58:54;;;;;;;4.17;3.33;;;20.30;99.90;;;;;;5034319;28;20841;-52
2021/06/22 05:01:21;;;;;;;3.90;2.70;;;20.50;99.90;;;;;;5034353;28;20511;-53
2021/06/22 05:03:48;;;;;;;4.17;2.93;;;20.70;99.90;;;;;;5034463;28;20534;-52
2021/06/22 05:06:17;;;;;;;4.67;2.93;;;21.10;99.90;;;;;;5033283;28;20469;-53
2021/06/22 05:08:44;;;;;;;3.50;2.60;;;21.80;99.90;;;;;;5032983;28;20460;-53
2021/06/22 05:11:11;;;;;;;2.63;2.43;;;22.50;99.90;;;;;;5033617;28;20449;-53
2021/06/22 05:13:38;;;;;;;2.70;2.37;;;23.40;99.90;;;;;;5033367;28;20518;-53
2021/06/22 05:16:06;;;;;;;3.10;2.10;;;24.10;99.90;;;;;;5033583;28;20483;-53
2021/06/22 05:18:33;;;;;;;4.17;2.90;;;24.70;99.90;;;;;;5032569;28;20889;-53
2021/06/22 05:21:00;;;;;;;5.43;2.67;;;25.60;99.90;;;;;;5014339;28;20928;-53
2021/06/22 05:23:28;;;;;;;3.03;2.70;;;26.10;99.90;;;;;;5030998;28;20453;-53
2021/06/22 05:25:55;;;;;;;5.80;2.50;;;26.80;99.90;;;;;;5033950;28;20468;-53
2021/06/22 05:28:22;;;;;;;4.87;2.77;;;27.20;99.90;;;;;;5033831;28;20459;-53
2021/06/22 05:30:50;;;;;;;3.03;2.80;;;27.70;99.90;;;;;;5032476;28;20534;-53
2021/06/22 05:33:17;;;;;;;4.30;2.50;;;28.10;99.90;;;;;;5033402;28;20527;-53
2021/06/22 05:35:44;;;;;;;3.63;2.60;;;28.30;99.90;;;;;;5033772;28;20519;-53
2021/06/22 05:38:11;;;;;;;2.43;2.23;;;28.70;99.90;;;;;;5033887;28;20453;-53
2021/06/22 05:40:40;;;;;;;5.03;3.00;;;28.80;99.90;;;;;;5024988;28;20940;-54
2021/06/22 05:43:07;;;;;;;3.10;2.80;;;29.20;99.90;;;;;;5013577;28;20457;-54
2021/06/22 05:45:34;;;;;;;2.77;2.33;;;28.80;99.90;;;;;;5013905;28;20567;-54
2021/06/22 05:48:01;;;;;;;3.40;2.90;;;28.40;99.90;;;;;;5027363;28;20456;-53
2021/06/22 05:50:28;;;;;;;4.80;2.40;;;27.20;99.90;;;;;;5033684;28;20867;-55
2021/06/22 05:52:56;;;;;;;5.43;2.90;;;26.90;99.90;;;;;;5033363;28;20506;-54
2021/06/22 05:55:23;;;;;;;3.70;2.50;;;27.00;99.90;;;;;;5033323;28;20519;-53
2021/06/22 05:57:53;;;;;;;2.70;2.50;;;27.20;99.90;;;;;;5033623;28;20452;-54
2021/06/22 06:00:24;;;;;;;5.10;3.20;;;27.40;99.90;;;;;;5033542;28;20960;-54
2021/06/22 06:02:51;;;;;;;3.83;3.30;;;26.60;99.90;;;;;;5032953;28;20984;-54
2021/06/22 06:05:19;;;;;;;4.33;2.70;;;24.70;99.90;;;;;;5033191;28;20892;-54
2021/06/22 06:07:47;;;;;;;5.60;2.73;;;23.10;99.90;;;;;;5033232;28;20522;-53
2021/06/22 06:10:14;;;;;;;3.90;2.50;;;22.10;99.90;;;;;;5033100;28;20942;-52
2021/06/22 06:12:41;;;;;;;3.60;2.60;;;21.90;99.90;;;;;;5032560;28;20449;-52
2021/06/22 06:15:11;;;;;;;4.97;3.20;;;21.40;99.90;;;;;;5032266;28;20461;-54
2021/06/22 06:17:38;;;;;;;4.30;3.17;;;21.00;99.90;;;;;;5032874;28;21023;-52
2021/06/22 06:20:08;;;;;;;9.90;3.10;;;20.80;99.90;;;;;;5032673;28;20502;-52
2021/06/22 06:22:36;;;;;;;3.93;3.33;;;20.80;99.90;;;;;;5032523;28;20563;-52
2021/06/22 06:25:04;;;;;;;9.23;3.43;;;20.60;99.90;;;;;;5032959;28;20480;-53
2021/06/22 06:27:40;;;;;;;5.13;3.50;;;20.60;99.90;;;;;;5032826;28;20506;-53
2021/06/22 06:30:13;;;;;;;4.20;3.70;;;20.90;99.90;;;;;;5032237;28;20817;-52
2021/06/22 06:32:40;;;;;;;6.40;3.80;;;20.70;99.90;;;;;;5032288;28;20869;-52
2021/06/22 06:35:08;;;;;;;6.20;4.10;;;21.20;99.90;;;;;;5031188;28;20495;-52
2021/06/22 06:37:35;;;;;;;5.83;3.80;;;21.50;99.90;;;;;;5031425;28;20202;-52
2021/06/22 06:40:02;;;;;;;5.97;4.03;;;22.70;99.90;;;;;;5032654;28;20452;-52
2021/06/22 06:42:29;;;;;;;4.40;2.70;;;24.00;99.90;;;;;;5031265;28;20452;-52
2021/06/22 06:44:56;;;;;;;4.20;3.40;;;25.40;99.90;;;;;;5032182;28;20869;-53
2021/06/22 06:47:24;;;;;;;3.50;3.20;;;25.90;99.90;;;;;;5032194;28;20457;-52
2021/06/22 06:49:51;;;;;;;3.47;3.17;;;26.70;99.90;;;;;;5032134;28;20453;-53
2021/06/22 06:52:19;;;;;;;4.93;3.57;;;27.10;99.90;;;;;;5031047;28;20460;-52
2021/06/22 06:54:46;;;;;;;3.80;3.40;;;26.40;99.90;;;;;;5031661;28;20453;-51
2021/06/22 06:57:13;;;;;;;3.87;3.47;;;25.60;99.90;;;;;;5031285;28;20828;-53
2021/06/22 06:59:40;;;;;;;4.37;3.17;;;25.40;99.90;;;;;;5032009;28;20538;-52
2021/06/22 07:02:07;;;;;;;3.53;3.23;;;25.60;99.90;;;;;;5031550;28;20445;-51
2021/06/22 07:04:36;;;;;;;5.70;3.43;;;25.00;99.90;;;;;;5032128;28;20488;-52
2021/06/22 07:07:03;;;;;;;3.83;3.43;;;23.60;99.90;;;;;;5031706;28;20476;-53
2021/06/22 07:09:30;;;;;;;3.83;3.43;;;22.80;99.90;;;;;;5031784;28;20503;-52
2021/06/22 07:11:57;;;;;;;5.13;3.40;;;22.50;99.90;;;;;;5031803;28;20471;-53
2021/06/22 07:14:24;;;;;;;8.77;3.70;;;22.10;99.90;;;;;;5031357;28;20958;-52
2021/06/22 07:16:52;;;;;;;6.33;3.43;;;21.80;99.90;;;;;;5031318;28;20495;-52
2021/06/22 07:19:19;;;;;;;3.43;3.13;;;22.60;99.90;;;;;;5031334;28;20449;-52
2021/06/22 07:21:48;;;;;;;4.47;3.63;;;23.20;99.90;;;;;;5031343;28;20880;-53
2021/06/22 07:24:15;;;;;;;4.53;3.40;;;23.30;99.90;;;;;;5031368;28;20452;-52
2021/06/22 07:26:43;;;;;;;4.30;3.70;;;23.60;99.90;;;;;;5031128;28;20469;-52
2021/06/22 07:29:10;;;;;;;3.43;3.13;;;24.20;99.90;;;;;;5031358;28;21188;-51
2021/06/22 07:31:37;;;;;;;5.43;3.40;;;24.30;99.90;;;;;;5031543;28;20452;-51
2021/06/22 07:34:04;;;;;;;5.07;3.50;;;24.00;99.90;;;;;;5030728;28;20445;-52
2021/06/22 07:36:31;;;;;;;4.53;3.67;;;24.10;99.90;;;;;;5031399;28;20515;-52
2021/06/22 07:39:00;;;;;;;5.20;3.87;;;24.10;99.90;;;;;;5031230;28;20448;-55
2021/06/22 07:41:27;;;;;;;5.40;3.43;;;24.10;99.90;;;;;;5031135;28;20449;-52
2021/06/22 07:43:55;;;;;;;4.87;3.40;;;24.20;99.90;;;;;;5031379;28;20441;-52
2021/06/22 07:46:22;;;;;;;4.67;3.90;;;23.70;99.90;;;;;;5031551;28;20503;-53
2021/06/22 07:48:49;;;;;;;5.63;3.83;;;22.90;99.90;;;;;;5031068;28;20456;-52
2021/06/22 07:51:16;;;;;;;4.40;4.00;;;23.60;99.90;;;;;;5031199;28;20452;-52
2021/06/22 07:53:43;;;;;;;4.53;3.43;;;23.40;99.90;;;;;;5031725;28;20460;-52
2021/06/22 07:56:12;;;;;;;4.90;3.63;;;23.10;99.90;;;;;;5035311;28;20476;-52
2021/06/22 07:58:39;;;;;;;6.60;4.50;;;23.20;99.90;;;;;;5035214;28;20453;-52
2021/06/22 08:01:06;;;;;;;6.20;4.40;;;22.90;99.90;;;;;;5035114;28;20459;-52
2021/06/22 08:03:33;;;;;;;4.17;3.77;;;23.60;99.90;;;;;;5034986;28;21013;-53
2021/06/22 08:06:00;;;;;;;5.47;3.90;;;23.70;99.90;;;;;;5034858;28;20495;-54
2021/06/22 08:08:27;;;;;;;4.10;3.47;;;23.60;99.90;;;;;;5035087;28;20464;-52
2021/06/22 08:10:56;;;;;;;5.40;4.07;;;23.90;99.90;;;;;;5035102;28;20950;-53
2021/06/22 08:13:26;;;;;;;6.70;4.10;;;23.70;99.90;;;;;;5035103;28;20543;-53
2021/06/22 08:15:53;;;;;;;4.30;3.43;;;24.80;99.90;;;;;;5035179;28;20515;-52
2021/06/22 08:18:20;;;;;;;4.77;4.20;;;24.30;99.90;;;;;;5034664;28;20959;-52
2021/06/22 08:20:49;;;;;;;4.53;4.13;;;23.70;99.90;;;;;;5034549;28;20514;-52
2021/06/22 08:23:17;;;;;;;5.20;4.20;;;23.10;99.90;;;;;;5034242;28;20480;-53
2021/06/22 08:25:44;;;;;;;5.23;4.37;;;23.30;99.90;;;;;;5034689;28;20858;-53
2021/06/22 08:28:11;;;;;;;6.23;4.23;;;23.60;99.90;;;;;;5034631;28;20510;-51
2021/06/22 08:30:40;;;;;;;5.63;4.47;;;23.10;99.90;;;;;;5035013;28;20460;-52
2021/06/22 08:33:08;;;;;;;4.83;4.47;;;22.80;99.90;;;;;;5034640;28;20970;-53
2021/06/22 08:35:36;;;;;;;5.53;4.00;;;22.40;99.90;;;;;;5034829;28;20468;-52
2021/06/22 08:38:05;;;;;;;5.13;4.63;;;22.40;99.90;;;;;;5034178;28;20536;-51
2021/06/22 08:40:32;;;;;;;7.23;4.10;;;22.30;99.90;;;;;;5034655;28;20539;-54
2021/06/22 08:42:59;;;;;;;4.77;3.87;;;22.50;99.90;;;;;;5033650;28;20456;-53
2021/06/22 08:45:26;;;;;;;3.17;2.97;;;22.70;99.90;;;;;;5034026;28;20539;-53
2021/06/22 08:47:55;;;;;;;7.73;3.30;;;24.00;99.90;;;;;;5034451;28;20502;-51
2021/06/22 08:50:23;;;;;;;4.27;3.87;;;24.80;99.90;;;;;;5034277;28;20456;-53
2021/06/22 08:52:51;;;;;;;4.00;3.70;;;25.00;99.90;;;;;;5034267;28;20502;-51
2021/06/22 08:55:30;;;;;;;5.80;3.40;;;25.30;99.90;;;;;;5033468;28;20468;-54
2021/06/22 08:58:00;;;;;;;6.03;3.87;;;25.10;99.90;;;;;;5034471;28;20455;-52
2021/06/22 09:00:29;;;;;;;4.33;3.93;;;25.20;99.90;;;;;;5033225;28;20456;-51
2021/06/22 09:03:03;;;;;;;5.70;3.50;;;25.60;99.90;;;;;;5033720;28;20499;-54
2021/06/22 09:05:30;;;;;;;4.63;3.53;;;25.60;99.90;;;;;;5032496;28;20499;-51
2021/06/22 09:07:57;;;;;;;5.10;3.70;;;26.50;99.90;;;;;;5034306;28;20440;-52
2021/06/22 09:10:27;;;;;;;7.77;3.57;;;26.20;99.90;;;;;;5033543;28;20476;-53
2021/06/22 09:12:54;;;;;;;4.23;3.57;;;26.00;99.90;;;;;;5033135;28;20452;-52
2021/06/22 09:15:25;;;;;;;3.60;3.30;;;25.20;99.90;;;;;;5033764;28;20859;-51
2021/06/22 09:17:52;;;;;;;6.10;4.30;;;24.70;99.90;;;;;;5055435;22;20492;-57
2021/06/22 09:20:39;;;;;;;5.63;4.80;;;24.40;99.90;;;;;;5033286;28;20453;-57
2021/06/22 09:23:18;;;;;;;4.50;4.10;;;25.00;99.90;;;;;;5033575;28;20506;-57
2021/06/22 09:25:47;;;;;;;4.63;4.23;;;24.80;99.90;;;;;;5028475;28;20481;-57
2021/06/22 09:28:14;;;;;;;4.93;4.47;;;23.80;99.90;;;;;;5013843;28;20469;-56
2021/06/22 09:30:51;;;;;;;6.80;4.50;;;23.20;99.90;;;;;;5013837;28;20860;-56
2021/06/22 09:33:22;;;;;;;5.60;5.00;;;22.80;99.90;;;;;;5013928;28;20480;-56
2021/06/22 09:35:58;;;;;;;6.60;4.50;;;22.60;99.90;;;;;;5013906;28;20500;-57
2021/06/22 09:38:29;;;;;;;8.43;5.30;;;22.30;99.90;;;;;;5023060;28;20456;-56
2021/06/22 09:41:04;;;;;;;6.63;4.93;;;22.30;99.90;;;;;;5033092;28;20448;-57
2021/06/22 09:43:40;;;;;;;7.30;5.30;;;21.80;99.90;;;;;;5033781;28;20547;-57
2021/06/22 09:46:07;;;;;;;6.70;5.43;;;21.90;99.90;;;;;;5033928;28;20476;-57
2021/06/22 09:48:44;;;;;;;6.53;5.70;;;21.90;99.90;;;;;;5033509;28;20506;-56
2021/06/22 09:51:13;;;;;;;5.10;4.60;;;22.00;99.90;;;;;;5033678;28;20551;-56
2021/06/22 09:53:40;;;;;;;5.93;5.33;;;22.00;99.90;;;;;;5032819;28;20510;-56
2021/06/22 09:56:19;;;;;;;5.17;4.67;;;22.00;99.90;;;;;;5033145;28;20460;-56
2021/06/22 09:58:46;;;;;;;6.93;5.27;;;22.10;99.90;;;;;;5033548;28;20456;-56
2021/06/22 10:01:31;;;;;;;6.73;4.97;;;22.00;99.90;;;;;;5032870;28;20453;-57
2021/06/22 10:04:14;;;;;;;5.43;4.40;;;22.10;99.90;;;;;;5033038;28;20465;-57
2021/06/22 10:06:48;;;;;;;5.30;4.67;;;21.90;99.90;;;;;;5032967;28;20495;-56
2021/06/22 10:09:20;;;;;;;6.00;4.17;;;22.00;99.90;;;;;;5033203;28;20483;-56
2021/06/22 10:11:57;;;;;;;4.87;4.17;;;22.10;99.90;;;;;;5032240;28;20962;-56
2021/06/22 10:14:26;;;;;;;4.03;3.63;;;22.10;99.90;;;;;;5032827;28;20499;-59
2021/06/22 10:16:54;;;;;;;5.23;3.40;;;22.10;99.90;;;;;;5032606;28;20476;-56
2021/06/22 10:19:23;;;;;;;7.70;3.63;;;21.90;99.90;;;;;;5032939;28;20965;-57
2021/06/22 10:21:54;;;;;;;3.77;3.40;;;21.80;99.90;;;;;;5033452;28;20429;-63
2021/06/22 10:24:21;;;;;;;4.07;3.23;;;21.90;99.90;;;;;;5032834;28;20445;-57
2021/06/22 10:26:49;;;;;;;6.10;3.00;;;22.00;99.90;;;;;;5031619;28;21028;-56
2021/06/22 10:29:20;;;;;;;3.87;3.47;;;21.90;99.90;;;;;;5032246;28;20449;-57
2021/06/22 10:31:49;;;;;;;4.70;3.23;;;22.00;99.90;;;;;;5031767;28;20471;-57
2021/06/22 10:34:16;;;;;;;3.80;3.50;;;21.90;99.90;;;;;;5032455;28;20491;-57
2021/06/22 10:36:52;;;;;;;3.67;3.10;;;22.00;99.90;;;;;;5031750;28;20487;-58
2021/06/22 10:39:28;;;;;;;3.97;3.07;;;22.00;99.90;;;;;;5032466;28;20452;-58
2021/06/22 10:41:57;;;;;;;3.90;3.40;;;22.10;99.90;;;;;;5032125;28;20480;-57
2021/06/22 10:44:45;;;;;;;3.77;3.47;;;22.10;99.90;;;;;;5032499;28;20935;-57
2021/06/22 10:47:32;;;;;;;5.00;2.40;;;21.80;99.90;;;;;;5032256;28;20538;-57
2021/06/22 10:50:17;;;;;;;4.00;2.70;;;21.80;99.90;;;;;;5032513;28;20448;-57
2021/06/22 10:53:05;;;;;;;5.33;3.30;;;21.90;99.90;;;;;;5032438;28;20566;-56
2021/06/22 10:56:13;;;;;;;4.00;2.70;;;21.90;99.90;;;;;;5032376;28;20440;-57
2021/06/22 10:58:40;;;;;;;3.70;2.60;;;22.00;99.90;;;;;;5019525;28;20892;-57
2021/06/22 11:01:18;;;;;;;2.40;2.20;;;22.10;99.90;;;;;;5032016;28;20456;-57
2021/06/22 11:04:03;;;;;;;2.50;2.30;;;22.10;99.90;;;;;;5029633;28;20449;-57
2021/06/22 11:06:30;;;;;;;3.83;2.13;;;21.90;99.90;;;;;;5027395;28;20301;-57
2021/06/22 11:09:20;;;;;;;3.07;2.13;;;21.80;99.90;;;;;;5030345;28;20457;-57
2021/06/22 11:11:49;;;;;;;3.47;2.40;;;22.30;99.90;;;;;;5025062;28;20514;-57
2021/06/22 11:14:17;;;;;;;3.00;2.30;;;22.50;99.90;;;;;;5026155;28;21282;-57
2021/06/22 11:16:44;;;;;;;2.07;1.97;;;22.70;99.90;;;;;;5031406;28;20479;-57
2021/06/22 11:19:13;;;;;;;1.93;1.60;;;23.00;99.90;;;;;;5029707;28;20470;-57
2021/06/22 11:21:55;;;;;;;2.17;1.60;;;23.10;99.90;;;;;;5030981;28;20444;-57
2021/06/22 11:24:25;;;;;;;2.13;1.83;;;23.60;99.90;;;;;;5031529;28;20942;-57
2021/06/22 11:27:13;;;;;;;1.93;1.70;;;23.80;99.90;;;;;;5031228;28;20913;-57
2021/06/22 11:29:51;;;;;;;1.67;1.50;;;24.00;99.90;;;;;;5031016;28;20451;-57
2021/06/22 11:32:36;;;;;;;2.03;1.57;;;24.40;99.90;;;;;;5030544;28;20476;-58
2021/06/22 11:35:05;;;;;;;2.40;1.50;;;24.90;99.90;;;;;;5029840;28;20537;-57
2021/06/22 11:37:32;;;;;;;1.70;1.60;;;25.40;99.90;;;;;;5030240;28;20502;-57
2021/06/22 11:40:01;;;;;;;1.57;1.37;;;25.10;99.90;;;;;;5031381;28;21008;-57
2021/06/22 11:42:32;;;;;;;3.43;1.57;;;24.80;99.90;;;;;;5028431;28;20453;-58
2021/06/22 11:45:24;;;;;;;1.80;1.43;;;24.50;99.90;;;;;;5031294;28;20460;-57
2021/06/22 11:48:00;;;;;;;1.43;1.33;;;24.60;99.90;;;;;;5030937;28;20512;-57
2021/06/22 11:50:35;;;;;;;1.60;1.40;;;24.80;99.90;;;;;;5031420;28;21203;-57
2021/06/22 11:53:14;;;;;;;1.23;1.10;;;24.60;99.90;;;;;;5031305;28;20482;-57
2021/06/22 11:55:50;;;;;;;2.07;1.50;;;24.00;99.90;;;;;;5031478;28;20452;-57
2021/06/22 11:58:24;;;;;;;1.30;1.20;;;23.40;99.90;;;;;;5025867;28;20465;-57
2021/06/22 12:00:51;;;;;;;1.30;1.20;;;23.90;99.90;;;;;;5011533;28;20456;-57
2021/06/22 12:03:20;;;;;;;1.50;1.27;;;24.60;99.90;;;;;;5011529;28;20499;-57
2021/06/22 12:05:48;;;;;;;2.17;1.43;;;24.50;99.90;;;;;;5016053;28;20456;-57
2021/06/22 12:08:24;;;;;;;1.60;1.50;;;24.70;99.90;;;;;;5031084;28;20542;-57
2021/06/22 12:10:54;;;;;;;2.37;1.20;;;25.30;99.90;;;;;;5031128;28;20448;-57
2021/06/22 12:13:38;;;;;;;1.83;1.63;;;25.70;99.90;;;;;;5030629;28;20463;-58
2021/06/22 12:16:22;;;;;;;1.77;1.57;;;24.90;99.90;;;;;;5012607;28;20472;-57
2021/06/22 12:18:50;;;;;;;1.83;1.30;;;24.20;99.90;;;;;;5029632;28;20453;-57
2021/06/22 12:21:17;;;;;;;3.67;1.77;;;24.10;99.90;;;;;;5030999;28;21085;-58
2021/06/22 12:23:45;;;;;;;1.50;1.40;;;24.20;99.90;;;;;;5030641;28;20961;-57
2021/06/22 12:26:13;;;;;;;2.80;1.57;;;24.20;99.90;;;;;;5031116;28;20615;-57
2021/06/22 12:28:43;;;;;;;2.30;1.50;;;24.30;99.90;;;;;;5030876;28;20531;-57
2021/06/22 12:31:12;;;;;;;2.37;1.73;;;24.20;99.90;;;;;;5030554;28;20456;-57
2021/06/22 12:33:41;;;;;;;1.37;1.27;;;23.90;99.90;;;;;;5030448;28;20973;-57
2021/06/22 12:36:10;;;;;;;2.00;1.80;;;23.90;99.90;;;;;;5030576;28;20507;-57
2021/06/22 12:38:39;;;;;;;2.10;1.90;;;23.70;99.90;;;;;;5030363;28;20852;-58
2021/06/22 12:41:08;;;;;;;2.17;1.97;;;23.90;99.90;;;;;;5033440;28;20457;-57
2021/06/22 12:43:53;;;;;;;2.93;2.10;;;24.30;99.90;;;;;;5034654;28;20447;-58
2021/06/22 12:46:22;;;;;;;2.50;2.30;;;24.60;99.90;;;;;;5034227;28;20484;-57
2021/06/22 12:48:56;;;;;;;4.30;2.03;;;24.30;99.90;;;;;;5033345;28;20503;-57
2021/06/22 12:51:24;;;;;;;3.50;2.60;;;24.40;99.90;;;;;;5034296;28;20958;-58
2021/06/22 12:53:52;;;;;;;2.23;1.97;;;24.60;99.90;;;;;;5033982;28;20448;-57
2021/06/22 12:56:20;;;;;;;2.13;1.90;;;24.90;99.90;;;;;;5034549;28;20464;-57
2021/06/22 12:58:49;;;;;;;3.60;2.70;;;24.70;99.90;;;;;;5033707;28;20894;-57